• Join FlightAware (Why Join?)
  • Login
  • US Flag 
06:18AM EDT


 

Airport Tracker/Info


-or-


 

Live Flight TrackerFlight Track Log ✈ AAY800 ✈ 15-Apr-2014 ✈ KPIE - KTOL

Flight Track Log - Related Links

Times and Time Zones

All times are in EDT time to prevent confusion due to time zone crossing. See the AAY800 flight status page for this flight to view local times or setup timezone preferences in your user account.

Time Position Orientation Groundspeed Altitude Reporting Facility
EDT Latitude Longitude Course Direction KTS MPH feet Rate Location/Type
07:51AM 27.9000 -82.6833 North 159 183 800  Level Tampa TRACON
07:52AM 27.8500 -82.6833 180° South 179 206 2,300 2,040 Climbing Tampa TRACON
07:53AM 27.8000 -82.7000 196° South 198 228 4,500 1,740 Climbing Tampa TRACON
07:54AM 27.8167 -82.7667 286° West 266 306 5,700 1,980 Climbing Tampa TRACON
07:55AM 27.9000 -82.7500 10° North 323 372 8,600 2,520 Climbing Tampa TRACON
07:56AM 27.9667 -82.7167 24° Northeast 327 376 10,500 1,260 Climbing Tampa TRACON
07:57AM 28.6168 -82.6444 North  Level FlightAware Approximate
07:58AM 28.1997 -82.6478 15° North 379 436 12,600  Level Jacksonville Center
07:59AM 28.3144 -82.6192 12° North 403 464 14,800 1,500 Climbing Jacksonville Center
08:00AM 28.4292 -82.6186 360° North 419 482 15,700 1,020 Climbing Jacksonville Center
08:01AM 28.5378 -82.6256 357° North 399 459 16,900 1,680 Climbing Jacksonville Center
08:02AM 28.6464 -82.6206 North 388 447 19,100 1,860 Climbing Jacksonville Center
08:03AM 28.7569 -82.6083 North 388 447 20,700 1,560 Climbing Jacksonville Center
08:04AM 28.8736 -82.5939 North 398 458 22,300 1,200 Climbing Jacksonville Center
08:05AM 28.9822 -82.5839 North 414 476 23,200 960 Climbing Jacksonville Center
08:06AM 29.1094 -82.5694 North 436 502 24,300 1,380 Climbing Jacksonville Center
08:07AM 29.2431 -82.5547 North 456 525 26,000 1,740 Climbing Jacksonville Center
08:08AM 29.3703 -82.5400 North 464 534 27,800 1,500 Climbing Jacksonville Center
08:09AM 29.4978 -82.5228 North 464 534 29,000 1,500 Climbing Jacksonville Center
08:10AM 29.6250 -82.5031 North 464 534 30,800 960 Climbing Jacksonville Center
08:11AM 29.7503 -82.4858 North 464 534 31,000 60 Climbing Jacksonville Center
08:12AM 29.8756 -82.4925 357° North 458 527 31,000 360 Level Jacksonville Center
08:13AM 30.0006 -82.4536 15° North 453 521 31,800 780 Climbing Jacksonville Center
08:14AM 30.1236 -82.3956 22° Northeast 460 529 32,600 600 Climbing Jacksonville Center
08:15AM 30.2486 -82.3394 21° North 465 535 33,000 180 Climbing Jacksonville Center
08:16AM 30.3736 -82.2883 19° North 465 535 33,000  Level Jacksonville Center
08:17AM 30.4967 -82.2392 19° North 465 535 33,000 -60 Level Jacksonville Center
08:18AM 30.6236 -82.1925 18° North 470 541 32,900 -60 Descending Jacksonville Center
08:19AM 30.7508 -82.1456 18° North 470 541 32,900  Level Jacksonville Center
08:20AM 30.8761 -82.1567 356° North 457 526 33,000  Climbing Jacksonville Center
08:21AM 30.9994 -82.1922 346° North 443 510 32,900 -60 Descending Jacksonville Center
08:22AM 31.1189 -82.2325 344° North 437 503 32,900  Level Jacksonville Center
08:23AM 31.2400 -82.2753 343° North 442 509 32,900  Level Jacksonville Center
08:24AM 31.3614 -82.3158 344° North 447 514 33,000  Climbing Jacksonville Center
08:26AM 31.5728 -82.3814 345° North 463 533 33,000  Level Atlanta Center
08:27AM 31.6983 -82.4231 344° North 457 526 33,000  Level Atlanta Center
08:28AM 31.8222 -82.4647 344° North 457 526 33,000  Level Atlanta Center
08:29AM 31.9519 -82.5089 344° North 464 534 33,000  Level Atlanta Center
08:30AM 32.0672 -82.5464 345° North 470 541 33,000  Level Atlanta Center
08:31AM 32.1953 -82.5908 344° North 470 541 33,000  Level Atlanta Center
08:32AM 32.3231 -82.6328 344° North 470 541 33,000 120 Level Atlanta Center
08:33AM 32.4508 -82.6753 344° North 476 548 33,300 420 Climbing Atlanta Center
08:34AM 32.5744 -82.7200 343° North 476 548 33,900 300 Climbing Atlanta Center
08:35AM 32.7042 -82.7625 345° North 476 548 34,000  Climbing Atlanta Center
08:36AM 32.8342 -82.8028 345° North 476 548 34,000  Level Atlanta Center
08:37AM 32.9619 -82.8406 346° North 476 548 34,000  Level Atlanta Center
08:38AM 33.0917 -82.8808 345° North 476 548 34,000  Level Atlanta Center
08:39AM 33.2192 -82.9164 347° North 476 548 34,000  Level Atlanta Center
08:40AM 33.3636 -82.9569 347° North 476 548 34,000  Level Atlanta Center
08:41AM 33.4914 -82.9950 346° North 468 539 34,000  Level Atlanta Center
08:42AM 33.6211 -83.0308 347° North 475 547 34,000 -240 Level Atlanta Center
08:43AM 33.7528 -83.0694 346° North 475 547 33,600 -720 Descending Atlanta Center
08:44AM 33.8847 -83.1081 346° North 475 547 32,600 -1,020 Descending Atlanta Center
08:45AM 34.0144 -83.1467 346° North 480 552 31,600 -840 Descending Atlanta Center
08:46AM 34.1525 -83.1878 346° North 489 563 31,000 -360 Descending Atlanta Center
08:47AM 34.2861 -83.2267 346° North 489 563 30,900 -360 Descending Atlanta Center
08:48AM 34.4053 -83.2633 346° North 489 563 30,300 -480 Descending Atlanta Center
08:49AM 34.5456 -83.3050 346° North 494 568 30,000 -180 Descending Atlanta Center
08:50AM 34.6772 -83.3467 345° North 489 563 30,000  Level Atlanta Center
08:51AM 34.8111 -83.3886 346° North 494 568 30,000  Level Atlanta Center
08:52AM 34.9469 -83.4281 347° North 494 568 30,000  Level Atlanta Center
08:53AM 35.0847 -83.4678 347° North 494 568 30,000  Level Atlanta Center
08:54AM 35.2353 -83.5150 346° North 494 568 30,000  Level Atlanta Center
08:55AM 35.3689 -83.5547 346° North 494 568 30,000  Level Atlanta Center
08:56AM 35.5067 -83.5975 346° North 494 568 30,000  Level Atlanta Center
08:57AM 35.6425 -83.6400 346° North 494 568 30,000  Level Atlanta Center
08:58AM 35.7783 -83.6803 346° North 489 563 30,000  Level Atlanta Center
08:59AM 35.9161 -83.7258 345° North 489 563 30,000  Level Atlanta Center
09:00AM 36.0539 -83.7664 347° North 494 568 30,000  Level Atlanta Center
09:01AM 36.1597 -83.7978 347° North 507 583 30,000  Level Indianapolis Center
09:02AM 36.3253 -83.8500 346° North 508 585 30,000  Level Indianapolis Center
09:03AM 36.4642 -83.8936 346° North 511 588 30,000  Level Indianapolis Center
09:04AM 36.6183 -83.9425 346° North 518 596 30,000  Level Indianapolis Center
09:05AM 36.7600 -83.9869 346° North 518 596 30,000  Level Indianapolis Center
09:06AM 36.9014 -84.0319 346° North 519 597 30,000  Level Indianapolis Center
09:07AM 37.0467 -84.0633 350° North 529 609 30,000  Level Indianapolis Center
09:08AM 37.1956 -84.0856 353° North 532 612 30,000  Level Indianapolis Center
09:09AM 37.3417 -84.1089 353° North 532 612 30,000  Level Indianapolis Center
09:10AM 37.4892 -84.1306 353° North 532 612 30,000  Level Indianapolis Center
09:11AM 37.6644 -84.1342 359° North 546 628 30,000  Level Indianapolis Center
09:12AM 37.8192 -84.1139 North 554 638 30,000  Level Indianapolis Center
09:13AM 37.9733 -84.0936 North 554 638 30,000  Level Indianapolis Center
09:14AM 38.1272 -84.0742 North 554 638 30,000  Level Indianapolis Center
09:15AM 38.2803 -84.0553 North 554 638 30,000  Level Indianapolis Center
09:16AM 38.4342 -84.0350 North 554 638 30,000  Level Indianapolis Center
09:17AM 38.6131 -84.0131 North 553 636 30,000  Level Indianapolis Center
09:18AM 38.7719 -83.9931 North 553 636 30,000  Level Indianapolis Center
09:19AM 38.9253 -83.9728 North 553 636 30,000  Level Indianapolis Center
09:20AM 39.0772 -83.9539 North 553 636 30,000 -120 Level Indianapolis Center
09:21AM 39.2283 -83.9339 North 550 633 29,800 -600 Descending Indianapolis Center
09:23AM 39.3814 -83.9139 North 550 633 28,800 -1,020 Descending Indianapolis Center
09:24AM 39.5358 -83.8958 North 551 634 27,800 -1,020 Descending Indianapolis Center
09:25AM 39.6906 -83.8753 North 551 634 26,700 -1,140 Descending Indianapolis Center
09:26AM 39.8472 -83.8544 North 555 639 25,500 -1,320 Descending Indianapolis Center
09:27AM 40.0311 -83.8292 North 552 635 24,000 -780 Descending Indianapolis Center
09:28AM 40.1797 -83.8097 North 537 618 24,000  Level Indianapolis Center
09:29AM 40.3283 -83.7906 North 535 616 24,000 -360 Level Indianapolis Center
09:30AM 40.4778 -83.7708 North 535 616 23,300 -1,200 Descending Indianapolis Center
09:31AM 40.6233 -83.7508 North 531 611 21,600 -2,040 Descending Indianapolis Center
09:32AM 40.7633 -83.7308 North 515 593 19,200 -2,400 Descending Indianapolis Center
09:33AM 40.8981 -83.7131 North 495 570 16,700 -2,940 Descending Indianapolis Center
09:34AM 41.0461 -83.6925 North 454 522 13,200 -2,520 Descending Indianapolis Center
09:35AM 41.1478 -83.6806 North 412 474 11,600 -1,380 Descending Indianapolis Center
09:36AM 41.2478 -83.6658 North 372 428 10,400 -1,260 Descending Indianapolis Center
09:37AM 41.3261 -83.6350 16° North 306 352 9,100 -2,040 Descending Indianapolis Center
09:38AM 41.4125 -83.6031 15° North 280 322 6,300 -2,160 Descending Indianapolis Center
09:39AM 41.4828 -83.5814 13° North 268 308 4,700 -1,440 Descending Indianapolis Center
09:40AM 41.5472 -83.5625 12° North 254 292 3,400 -1,080 Descending Indianapolis Center
09:41AM 41.6067 -83.5900 341° North 216 249 2,400 -480 Descending Cleveland Center
09:42AM 41.6236 -83.6433 293° West 182 209 2,400 -60 Level Cleveland Center
09:43AM 41.6219 -83.6969 268° West 170 196 2,300 -420 Descending Cleveland Center
09:44AM 41.6083 -83.7442 249° West 149 171 1,600 -720 Descending Cleveland Center
09:46AM 41.5833 -83.8000 255° West  Level FlightAware Approximate